createdAt,value
2022-11-05T00:00:35.484Z,75.12
2022-11-05T00:05:23.886Z,74.52
2022-11-05T00:09:40.112Z,76.25
2022-11-05T00:14:14.717Z,75.37
2022-11-05T00:18:31.779Z,74.10
2022-11-05T00:23:06.639Z,73.46
2022-11-05T00:27:22.843Z,73.29
2022-11-05T00:31:38.959Z,72.48
2022-11-05T00:35:55.355Z,71.74
2022-11-05T00:40:12.845Z,72.84
2022-11-05T00:44:47.746Z,71.03
2022-11-05T00:49:22.512Z,70.92
2022-11-05T00:53:38.665Z,70.69
2022-11-05T00:57:55.623Z,70.60
2022-11-05T01:02:11.810Z,69.73
2022-11-05T01:06:28.152Z,69.77
2022-11-05T01:10:50.111Z,70.08
2022-11-05T01:15:07.123Z,70.21
2022-11-05T01:19:23.231Z,70.63
2022-11-05T01:23:39.569Z,70.56
2022-11-05T01:27:55.844Z,69.72
2022-11-05T01:32:12.031Z,70.07
2022-11-05T01:36:28.157Z,70.45
2022-11-05T01:40:44.843Z,69.61
2022-11-05T01:45:05.333Z,68.79
2022-11-05T01:49:33.531Z,69.43
2022-11-05T01:53:52.948Z,69.17
2022-11-05T01:58:11.712Z,70.90
2022-11-05T02:02:29.088Z,71.01
2022-11-05T02:06:46.780Z,72.00
2022-11-05T02:11:03.070Z,70.58
2022-11-05T02:15:40.783Z,70.83
2022-11-05T02:20:22.757Z,75.10
2022-11-05T02:25:08.447Z,74.86
2022-11-05T02:29:48.108Z,75.52
2022-11-05T02:34:39.302Z,75.17
2022-11-05T02:39:18.221Z,74.02
2022-11-05T02:44:00.213Z,73.42
2022-11-05T02:48:44.345Z,74.72
2022-11-05T02:53:07.420Z,73.09
2022-11-05T02:57:24.016Z,74.52
2022-11-05T03:01:42.509Z,74.40
2022-11-05T03:06:17.294Z,73.92
2022-11-05T03:11:11.928Z,76.01
2022-11-05T03:15:55.179Z,73.51
2022-11-05T03:20:32.168Z,75.02
2022-11-05T03:24:51.798Z,74.40
2022-11-05T03:29:12.125Z,76.28
2022-11-05T03:33:31.617Z,74.48
2022-11-05T03:37:50.866Z,73.94
2022-11-05T03:42:09.129Z,75.34
2022-11-05T03:46:49.531Z,74.50
2022-11-05T03:51:31.983Z,75.07
2022-11-05T03:56:01.560Z,74.44
2022-11-05T04:00:17.819Z,73.88
2022-11-05T04:04:33.944Z,73.29
2022-11-05T04:09:08.724Z,72.67
2022-11-05T04:13:24.959Z,73.61
2022-11-05T04:17:41.183Z,74.11
2022-11-05T04:22:15.901Z,73.22
2022-11-05T04:26:32.010Z,72.91
2022-11-05T04:30:48.233Z,72.62
2022-11-05T04:35:04.498Z,72.28
2022-11-05T04:39:21.266Z,72.12
2022-11-05T04:43:37.371Z,70.94
2022-11-05T04:47:53.750Z,71.86
2022-11-05T04:52:09.935Z,72.39
2022-11-05T04:56:26.609Z,73.07
2022-11-05T05:00:42.876Z,71.57
2022-11-05T05:04:59.123Z,72.88
2022-11-05T05:09:15.250Z,72.85
2022-11-05T05:13:31.561Z,72.33
2022-11-05T05:17:53.832Z,71.88
2022-11-05T05:22:10.902Z,72.62
2022-11-05T05:26:27.123Z,73.56
2022-11-05T05:30:43.269Z,71.46
2022-11-05T05:34:59.381Z,69.95
2022-11-05T05:39:15.562Z,72.55
2022-11-05T05:43:32.869Z,72.20
2022-11-05T05:47:49.006Z,70.69
2022-11-05T05:52:05.410Z,70.57
2022-11-05T05:56:21.721Z,71.41
2022-11-05T06:00:37.882Z,70.31
2022-11-05T06:04:54.105Z,70.57
2022-11-05T06:09:10.242Z,72.44
2022-11-05T06:13:26.780Z,71.47
2022-11-05T06:17:44.743Z,71.79
2022-11-05T06:22:00.912Z,70.79
2022-11-05T06:26:18.882Z,70.61
2022-11-05T06:30:35.062Z,70.40
2022-11-05T06:34:51.268Z,70.05
2022-11-05T06:39:11.551Z,70.49
2022-11-05T06:43:28.508Z,70.86
2022-11-05T06:47:44.630Z,72.13
2022-11-05T06:52:00.717Z,70.79
2022-11-05T06:56:16.809Z,70.22
2022-11-05T07:00:33.140Z,69.56
2022-11-05T07:04:49.368Z,69.17
2022-11-05T07:09:05.562Z,68.58
2022-11-05T07:13:21.742Z,71.68
2022-11-05T07:17:37.943Z,72.38
2022-11-05T07:21:54.129Z,69.28
2022-11-05T07:26:10.248Z,69.74
2022-11-05T07:30:26.574Z,69.69
2022-11-05T07:34:42.935Z,67.98
2022-11-05T07:39:00.485Z,66.68
2022-11-05T07:43:17.182Z,69.70
2022-11-05T07:47:33.320Z,69.98
2022-11-05T07:51:49.420Z,69.75
2022-11-05T07:56:05.912Z,69.12
2022-11-05T08:00:24.569Z,68.78
2022-11-05T08:04:42.711Z,69.25
2022-11-05T08:08:58.804Z,69.44
2022-11-05T08:13:16.020Z,70.21
2022-11-05T08:17:32.391Z,68.61
2022-11-05T08:21:48.508Z,71.05
2022-11-05T08:26:05.075Z,70.81
2022-11-05T08:30:21.167Z,70.02
2022-11-05T08:34:37.344Z,69.29
2022-11-05T08:38:53.456Z,69.26
2022-11-05T08:43:11.013Z,69.24
2022-11-05T08:47:27.343Z,68.39
2022-11-05T08:51:45.555Z,68.57
2022-11-05T08:56:01.677Z,69.65
2022-11-05T09:00:18.108Z,68.25
2022-11-05T09:04:34.266Z,70.99
2022-11-05T09:08:50.428Z,69.16
2022-11-05T09:13:06.698Z,69.06
2022-11-05T09:17:23.205Z,70.89
2022-11-05T09:21:39.334Z,68.91
2022-11-05T09:25:55.495Z,69.48
2022-11-05T09:30:13.405Z,68.25
2022-11-05T09:34:29.613Z,66.90
2022-11-05T09:38:45.927Z,66.77
2022-11-05T09:43:02.536Z,68.17
2022-11-05T09:47:42.858Z,67.97
2022-11-05T09:51:59.425Z,67.73
2022-11-05T09:56:31.564Z,68.13
2022-11-05T10:00:51.206Z,67.62
2022-11-05T10:05:10.417Z,67.28
2022-11-05T10:09:47.980Z,66.73
2022-11-05T10:14:18.610Z,65.66
2022-11-05T10:18:39.713Z,66.13
2022-11-05T10:22:58.784Z,66.73
2022-11-05T10:27:36.788Z,65.70
2022-11-05T10:31:55.759Z,66.49
2022-11-05T10:36:16.956Z,65.82
2022-11-05T10:40:46.842Z,65.11
2022-11-05T10:45:11.737Z,65.22
2022-11-05T10:49:58.612Z,63.63
2022-11-05T10:54:22.132Z,63.17
2022-11-05T10:58:42.317Z,62.28
2022-11-05T11:03:04.115Z,63.34
2022-11-05T11:07:25.786Z,62.89
2022-11-05T11:11:43.033Z,62.76
2022-11-05T11:16:16.403Z,62.21
2022-11-05T11:20:33.504Z,62.66
2022-11-05T11:24:54.107Z,61.63
2022-11-05T11:29:28.936Z,61.61
2022-11-05T11:33:50.753Z,60.88
2022-11-05T11:38:07.404Z,61.65
2022-11-05T11:42:35.216Z,60.95
2022-11-05T11:46:53.751Z,61.17
2022-11-05T11:51:41.693Z,60.33
2022-11-05T11:56:07.114Z,60.45
2022-11-05T12:00:26.153Z,59.25
2022-11-05T12:05:03.534Z,60.50
2022-11-05T12:09:40.973Z,60.94
2022-11-05T12:14:24.499Z,60.54
2022-11-05T12:19:06.184Z,60.49
2022-11-05T12:23:34.091Z,59.47
2022-11-05T12:28:36.236Z,58.46
2022-11-05T12:33:28.055Z,59.36
2022-11-05T12:38:27.675Z,58.92
2022-11-05T12:42:59.012Z,58.19
2022-11-05T12:47:27.406Z,59.23
2022-11-05T12:52:05.801Z,58.04
2022-11-05T12:56:31.609Z,58.79
2022-11-05T13:00:52.740Z,57.99
2022-11-05T13:05:30.150Z,60.06
2022-11-05T13:09:54.609Z,59.52
2022-11-05T13:14:34.170Z,58.29
2022-11-05T13:18:54.100Z,58.49
2022-11-05T13:23:19.450Z,58.61
2022-11-05T13:28:07.601Z,58.78
2022-11-05T13:32:39.522Z,58.29
2022-11-05T13:37:23.789Z,57.70
2022-11-05T13:42:03.997Z,58.06
2022-11-05T13:46:51.163Z,58.62
2022-11-05T13:51:31.500Z,60.35
2022-11-05T13:56:02.970Z,60.10
2022-11-05T14:00:23.122Z,58.48
2022-11-05T14:04:45.092Z,58.25
2022-11-05T14:09:12.243Z,59.82
2022-11-05T14:13:40.874Z,59.98
2022-11-05T14:18:04.893Z,59.73
2022-11-05T14:22:33.231Z,59.40
2022-11-05T14:27:01.717Z,59.56
2022-11-05T14:31:25.197Z,59.95
2022-11-05T14:35:47.728Z,59.57
2022-11-05T14:40:22.792Z,59.35
2022-11-05T14:45:02.274Z,59.23
2022-11-05T14:49:25.640Z,58.49
2022-11-05T14:53:41.921Z,58.51
2022-11-05T14:57:58.055Z,58.21
2022-11-05T15:02:17.162Z,58.03
2022-11-05T15:06:37.326Z,59.49
2022-11-05T15:10:56.941Z,58.28
2022-11-05T15:15:31.029Z,58.71
2022-11-05T15:19:47.385Z,59.39
2022-11-05T15:24:04.061Z,59.00
2022-11-05T15:28:46.268Z,59.77
2022-11-05T15:33:29.217Z,59.87
2022-11-05T15:37:54.609Z,59.75
2022-11-05T15:42:26.753Z,61.07
2022-11-05T15:46:42.903Z,63.28
2022-11-05T15:50:59.473Z,62.30
2022-11-05T15:55:20.652Z,62.75
2022-11-05T15:59:37.378Z,63.00
2022-11-05T16:03:54.723Z,64.17
2022-11-05T16:08:26.555Z,63.32
2022-11-05T16:12:42.761Z,66.11
2022-11-05T16:17:10.167Z,67.02
2022-11-05T16:21:26.614Z,66.01
2022-11-05T16:25:43.778Z,67.21
2022-11-05T16:29:59.999Z,65.23
2022-11-05T16:34:45.882Z,64.95
2022-11-05T16:39:02.102Z,64.79
2022-11-05T16:43:21.093Z,65.39
2022-11-05T16:47:37.261Z,64.78
2022-11-05T16:51:53.421Z,65.11
2022-11-05T16:56:14.126Z,65.13
2022-11-05T17:00:30.307Z,67.46
2022-11-05T17:04:47.268Z,66.74
2022-11-05T17:09:03.446Z,66.20
2022-11-05T17:13:20.315Z,66.03
2022-11-05T17:17:36.438Z,65.55
2022-11-05T17:21:52.597Z,66.13
2022-11-05T17:26:13.253Z,66.21
2022-11-05T17:30:29.787Z,65.29
2022-11-05T17:34:46.632Z,66.55
2022-11-05T17:39:02.808Z,66.79
2022-11-05T17:43:20.376Z,65.64
2022-11-05T17:47:36.617Z,68.19
2022-11-05T17:51:52.786Z,68.75
2022-11-05T17:56:13.684Z,67.59
2022-11-05T18:00:30.011Z,67.57
2022-11-05T18:04:46.123Z,67.36
2022-11-05T18:09:02.206Z,67.83
2022-11-05T18:13:18.327Z,67.74
2022-11-05T18:17:34.656Z,68.40
2022-11-05T18:21:50.791Z,69.63
2022-11-05T18:26:14.642Z,67.77
2022-11-05T18:30:30.778Z,71.14
2022-11-05T18:34:46.947Z,69.22
2022-11-05T18:39:04.140Z,69.81
2022-11-05T18:43:20.372Z,69.76
2022-11-05T18:47:36.572Z,70.07
2022-11-05T18:51:52.786Z,69.57
2022-11-05T18:56:10.364Z,69.49
2022-11-05T19:00:28.064Z,68.99
2022-11-05T19:05:06.756Z,67.97
2022-11-05T19:09:21.379Z,67.26
2022-11-05T19:13:38.343Z,66.81
2022-11-05T19:17:54.452Z,67.85
2022-11-05T19:22:10.595Z,66.96
2022-11-05T19:26:28.851Z,67.45
2022-11-05T19:30:45.761Z,68.72
2022-11-05T19:35:07.153Z,69.70
2022-11-05T19:39:23.486Z,68.95
2022-11-05T19:43:40.977Z,70.01
2022-11-05T19:47:57.163Z,72.51
2022-11-05T19:52:13.242Z,71.45
2022-11-05T19:56:33.287Z,71.13
2022-11-05T20:00:49.433Z,72.08
2022-11-05T20:05:05.821Z,72.61
2022-11-05T20:09:23.129Z,73.39
2022-11-05T20:13:39.625Z,73.38
2022-11-05T20:17:56.894Z,71.78
2022-11-05T20:22:13.001Z,72.17
2022-11-05T20:26:29.600Z,72.12
2022-11-05T20:30:45.716Z,73.04
2022-11-05T20:35:01.824Z,73.31
2022-11-05T20:39:18.475Z,72.41
2022-11-05T20:43:34.721Z,72.06
2022-11-05T20:47:50.849Z,71.51
2022-11-05T20:52:06.984Z,70.35
2022-11-05T20:56:26.959Z,71.22
2022-11-05T21:00:54.103Z,71.73
2022-11-05T21:05:10.358Z,72.50
2022-11-05T21:09:26.691Z,70.73
2022-11-05T21:13:42.819Z,71.17
2022-11-05T21:17:59.915Z,71.67
2022-11-05T21:22:15.997Z,71.08
2022-11-05T21:26:34.081Z,71.95
2022-11-05T21:30:50.266Z,70.65
2022-11-05T21:35:06.744Z,69.52
2022-11-05T21:39:22.896Z,70.77
2022-11-05T21:43:41.914Z,69.53
2022-11-05T21:47:58.046Z,69.98
2022-11-05T21:52:32.777Z,69.34
2022-11-05T21:57:10.794Z,70.00
2022-11-05T22:01:27.303Z,69.49
2022-11-05T22:05:43.569Z,69.55
2022-11-05T22:10:00.204Z,71.72
2022-11-05T22:14:16.719Z,69.77
2022-11-05T22:18:32.891Z,67.60
2022-11-05T22:22:49.156Z,67.72
2022-11-05T22:27:08.595Z,67.81
2022-11-05T22:31:24.795Z,68.55
2022-11-05T22:35:40.890Z,69.51
2022-11-05T22:39:57.008Z,69.66
2022-11-05T22:44:14.404Z,70.18
2022-11-05T22:48:30.591Z,68.65
2022-11-05T22:52:46.670Z,69.94
2022-11-05T22:57:02.893Z,68.52
2022-11-05T23:01:20.255Z,68.71
2022-11-05T23:05:36.514Z,70.04
2022-11-05T23:10:11.089Z,69.30
2022-11-05T23:14:28.097Z,68.56
2022-11-05T23:19:02.949Z,71.75
2022-11-05T23:23:37.505Z,71.21
2022-11-05T23:27:55.664Z,71.89
2022-11-05T23:32:28.340Z,71.28
2022-11-05T23:37:03.220Z,68.53
2022-11-05T23:41:38.023Z,68.04
2022-11-05T23:46:13.560Z,68.73
2022-11-05T23:50:34.461Z,68.76
2022-11-05T23:54:54.557Z,68.68
2022-11-05T23:59:10.796Z,68.65
